Time;durP1;ratioP1;P1;durP2;ratioP2;P2;SDS_P1;SDS_P2;PMS_P1;PMS_P2;Temp;Humidity;BMP_temperature;BMP_pressure;BME280_temperature;BME280_humidity;BME280_pressure;Samples;Min_cycle;Max_cycle;Signal;HPM_P1;HPM_P2
2022/06/22 00:00:14;;;;;;;1.25;0.80;;;;;;;14.50;58.04;100119.41;6192425;23;20008;-71
2022/06/22 00:06:04;;;;;;;2.03;0.95;;;;;;;14.50;58.14;100111.16;6154401;23;20044;-72
2022/06/22 00:08:51;;;;;;;3.38;1.10;;;;;;;14.60;57.86;100119.25;6151667;23;20087;-72
2022/06/22 00:11:25;;;;;;;1.08;0.80;;;;;;;14.56;58.38;100112.69;6191469;23;20078;-70
2022/06/22 00:14:27;;;;;;;1.48;0.95;;;;;;;14.48;58.14;100105.13;6214706;23;20034;-70
2022/06/22 00:17:15;;;;;;;0.85;0.70;;;;;;;14.52;58.28;100110.84;6189581;23;20060;-72
2022/06/22 00:19:52;;;;;;;1.05;0.90;;;;;;;14.54;58.13;100119.63;6189114;23;20423;-71
2022/06/22 00:22:43;;;;;;;0.95;0.85;;;;;;;14.45;58.01;100112.03;6188859;23;20048;-72
2022/06/22 00:25:28;;;;;;;1.48;0.80;;;;;;;14.42;58.44;100111.81;6190044;23;20004;-72
2022/06/22 00:28:52;;;;;;;0.93;0.60;;;;;;;14.49;57.96;100128.78;6190377;23;20315;-73
2022/06/22 00:31:38;;;;;;;0.95;0.63;;;;;;;14.44;58.98;100126.94;6161633;23;20005;-73
2022/06/22 00:34:10;;;;;;;2.10;0.85;;;;;;;14.47;58.87;100131.81;6215979;23;20064;-73
2022/06/22 00:37:30;;;;;;;;;;;;;;;;;;;;;
2022/06/22 00:43:27;;;;;;;2.30;1.30;;;;;;;14.24;58.92;100110.75;6155587;23;20027;-73
2022/06/22 00:45:52;;;;;;;2.15;0.80;;;;;;;14.22;59.28;100104.69;6164123;23;20009;-73
2022/06/22 00:48:43;;;;;;;0.95;0.80;;;;;;;14.30;59.06;100117.78;6161957;23;20387;-73
2022/06/22 00:51:17;;;;;;;1.27;0.90;;;;;;;14.16;59.47;100103.97;6175917;23;20008;-72
2022/06/22 01:04:22;;;;;;;1.13;0.93;;;;;;;14.16;59.54;100098.47;6095547;23;20074;-73
2022/06/22 01:06:57;;;;;;;1.90;1.15;;;;;;;14.22;59.91;100107.44;6097157;23;20030;-73
2022/06/22 01:09:42;;;;;;;5.78;1.55;;;;;;;14.07;60.04;100101.06;6174979;23;20009;-72
2022/06/22 01:12:44;;;;;;;4.00;1.20;;;;;;;14.20;60.57;100106.94;6162575;23;20005;-72
2022/06/22 01:15:32;;;;;;;2.17;1.55;;;;;;;14.13;60.33;100105.41;6184784;23;20004;-73
2022/06/22 01:18:22;;;;;;;2.08;1.50;;;;;;;14.06;60.53;100087.63;6186900;23;20001;-73
2022/06/22 01:21:14;;;;;;;3.60;1.40;;;;;;;13.99;60.89;100088.00;6185965;23;20007;-73
2022/06/22 01:24:07;;;;;;;2.92;1.08;;;;;;;14.00;61.44;100099.81;6161723;23;20005;-73
2022/06/22 01:26:35;;;;;;;2.08;1.20;;;;;;;14.02;61.12;100097.56;6188252;23;20125;-72
2022/06/22 01:29:17;;;;;;;2.22;1.30;;;;;;;13.96;60.92;100089.41;6186311;23;20004;-72
2022/06/22 01:32:06;;;;;;;3.60;1.65;;;;;;;13.81;61.12;100061.31;6186587;23;20009;-72
2022/06/22 01:34:40;;;;;;;2.65;1.40;;;;;;;13.75;61.16;100075.13;6185812;23;20012;-71
2022/06/22 01:37:11;;;;;;;2.70;1.90;;;;;;;13.83;61.08;100100.31;6186712;23;20005;-72
2022/06/22 01:39:37;;;;;;;2.88;1.65;;;;;;;13.59;61.81;100081.94;6189362;23;20451;-70
2022/06/22 01:52:48;;;;;;;;;;;;;;;;;;;;;
2022/06/22 02:09:33;;;;;;;;;;;;;;;;;;;;;
2022/06/22 02:12:29;;;;;;;5.25;2.10;;;;;;;12.92;63.95;100099.97;6011681;23;20053;-72
2022/06/22 02:15:37;;;;;;;3.47;1.73;;;;;;;12.88;64.22;100092.63;6068192;23;20022;-73
2022/06/22 02:33:30;;;;;;;5.47;2.38;;;;;;;12.59;65.95;100074.22;5790541;24;20083;-75
2022/06/22 02:36:27;;;;;;;4.85;2.00;;;;;;;12.52;66.77;100071.00;5805901;24;20042;-72
2022/06/22 02:39:54;;;;;;;3.35;1.90;;;;;;;12.42;66.75;100074.63;5927006;23;20168;-74
2022/06/22 02:46:45;;;;;;;1.77;1.27;;;;;;;12.36;66.34;100071.09;6007191;23;20023;-74
2022/06/22 03:24:45;;;;;;;;;;;;;;;;;;;;;
2022/06/22 03:38:23;;;;;;;2.08;1.67;;;;;;;11.60;68.18;100062.25;5926258;24;20017;-73
2022/06/22 03:45:34;;;;;;;4.65;2.10;;;;;;;11.72;68.54;100078.34;5895535;24;20477;-73
2022/06/22 03:56:32;;;;;;;;;;;;;;;;;;;;;
2022/06/22 03:59:14;;;;;;;2.97;1.80;;;;;;;11.92;68.82;100082.09;5902550;24;20077;-73
2022/06/22 04:23:52;;;;;;;2.33;1.92;;;;;;;11.82;69.32;100126.78;5880870;24;20016;-74
2022/06/22 04:26:38;;;;;;;;;;;;;;;;;;;;;
2022/06/22 04:29:21;;;;;;;6.05;2.30;;;;;;;11.65;69.54;100099.75;5892437;23;20089;-74
2022/06/22 04:32:33;;;;;;;2.25;1.98;;;;;;;11.70;69.62;100097.81;6001570;23;20010;-73
2022/06/22 04:38:35;;;;;;;3.63;1.85;;;;;;;12.13;69.84;100123.91;6027058;23;20011;-72
2022/06/22 04:41:45;;;;;;;;;;;;;;;;;;;;;
2022/06/22 04:44:26;;;;;;;3.38;1.38;;;;;;;12.34;69.10;100108.97;6151962;23;20089;-72
2022/06/22 04:54:40;;;;;;;2.35;1.33;;;;;;;12.52;67.74;100128.59;6124213;23;20040;-71
2022/06/22 04:57:35;;;;;;;3.42;1.70;;;;;;;12.58;68.56;100119.19;6170364;23;20031;-71
2022/06/22 05:03:23;;;;;;;2.90;1.70;;;;;;;12.79;67.56;100091.59;6168611;23;20450;-73
2022/06/22 05:06:29;;;;;;;1.67;1.55;;;;;;;12.98;67.44;100114.47;6187719;23;20005;-72
2022/06/22 05:09:32;;;;;;;4.63;1.85;;;;;;;13.12;66.66;100119.25;6162475;23;20440;-72
2022/06/22 05:12:12;;;;;;;2.47;1.85;;;;;;;13.13;66.28;100104.41;6186214;23;19997;-71
2022/06/22 05:14:41;;;;;;;3.28;1.88;;;;;;;13.28;65.97;100118.78;6160205;23;20025;-71
2022/06/22 05:17:17;;;;;;;3.00;1.83;;;;;;;13.41;66.66;100131.03;6184358;23;20009;-73
2022/06/22 05:20:18;;;;;;;;;;;;;;;;;;;;;
2022/06/22 05:23:00;;;;;;;1.85;1.40;;;;;;;13.61;65.34;100116.25;6185334;23;20028;-72
2022/06/22 05:25:30;;;;;;;1.25;1.15;;;;;;;13.68;65.73;100110.41;6159579;23;20019;-74
2022/06/22 05:28:26;;;;;;;2.13;1.13;;;;;;;13.93;65.47;100125.75;6159358;23;20055;-71
2022/06/22 05:31:31;;;;;;;2.92;1.60;;;;;;;14.14;64.28;100123.50;6185518;23;20004;-71
2022/06/22 05:34:37;;;;;;;2.33;1.35;;;;;;;14.20;64.30;100115.19;6161377;23;20043;-71
2022/06/22 05:42:19;;;;;;;;;;;;;;;;;;;;;
2022/06/22 05:51:48;;;;;;;2.47;1.55;;;;;;;15.07;62.48;100143.22;6096038;23;20054;-74
2022/06/22 05:54:40;;;;;;;1.48;1.33;;;;;;;15.16;62.71;100141.44;6071499;23;20101;-73
2022/06/22 05:57:17;;;;;;;3.50;1.50;;;;;;;15.27;61.90;100140.09;6182289;23;20035;-72
2022/06/22 06:00:06;;;;;;;2.75;1.30;;;;;;;15.37;61.85;100133.59;6186996;23;20443;-72
2022/06/22 06:02:45;;;;;;;3.60;1.35;;;;;;;15.40;61.71;100135.72;6186587;23;20001;-72
2022/06/22 06:05:29;;;;;;;4.25;1.42;;;;;;;15.44;61.33;100134.00;6159387;23;20009;-72
2022/06/22 06:08:01;;;;;;;2.13;1.38;;;;;;;15.52;61.53;100136.06;6158521;23;20005;-72
2022/06/22 06:10:43;;;;;;;3.15;1.33;;;;;;;15.71;60.93;100143.38;6186252;23;20009;-71
2022/06/22 06:13:37;;;;;;;3.63;1.70;;;;;;;15.97;60.85;100160.22;6134279;23;20309;-72
2022/06/22 06:51:36;;;;;;;3.17;2.08;;;;;;;16.98;59.97;100165.66;6073790;23;20090;-77
2022/06/22 07:04:47;;;;;;;2.10;1.75;;;;;;;17.20;59.51;100148.22;5823859;24;20026;-78
2022/06/22 07:39:27;;;;;;;2.58;1.80;;;;;;;18.89;55.70;100133.22;6140656;23;20015;-76
2022/06/22 07:46:22;;;;;;;4.85;2.50;;;;;;;19.49;54.67;100159.13;6015719;23;20136;-76
2022/06/22 08:07:14;;;;;;;3.35;1.58;;;;;;;20.36;45.39;100152.25;5689542;25;20442;-74
2022/06/22 08:09:54;;;;;;;2.85;1.00;;;;;;;20.71;43.76;100184.50;5685575;24;20026;-74
2022/06/22 08:34:53;;;;;;;1.02;0.70;;;;;;;21.95;38.39;100168.88;5954215;24;20011;-78
2022/06/22 08:38:24;;;;;;;;;;;;;;;;;;;;;
2022/06/22 08:41:28;;;;;;;;;;;;;;;;;;;;;
2022/06/22 08:54:36;;;;;;;1.85;0.90;;;;;;;22.62;35.74;100169.31;5961361;24;20012;-75
2022/06/22 09:14:01;;;;;;;2.33;1.10;;;;;;;23.40;36.12;100157.91;6155136;23;20075;-75
2022/06/22 09:31:28;;;;;;;;;;;;;;;;;;;;;
2022/06/22 09:38:11;;;;;;;4.07;0.85;;;;;;;24.38;34.36;100166.56;5926576;24;20061;-74
2022/06/22 09:44:46;;;;;;;;;;;;;;;;;;;;;
2022/06/22 09:51:41;;;;;;;;;;;;;;;;;;;;;
2022/06/22 09:57:59;;;;;;;1.42;0.90;;;;;;;24.87;34.30;100163.22;6041998;23;20018;-76
2022/06/22 10:00:49;;;;;;;1.83;0.82;;;;;;;24.97;34.20;100149.81;6199014;23;20001;-74
2022/06/22 10:06:52;;;;;;;3.03;0.80;;;;;;;25.36;33.45;100169.31;6159347;23;20027;-75
2022/06/22 10:21:12;;;;;;;3.97;1.23;;;;;;;25.94;32.75;100143.84;6016010;23;20063;-77
2022/06/22 10:47:48;;;;;;;;;;;;;;;;;;;;;
2022/06/22 10:54:41;;;;;;;4.00;1.60;;;;;;;28.03;28.31;100167.78;6158999;23;20152;-76
2022/06/22 10:57:51;;;;;;;6.63;1.65;;;;;;;27.67;28.24;100129.00;6139193;23;20025;-78
2022/06/22 11:04:07;;;;;;;1.60;0.80;;;;;;;28.33;28.19;100147.88;6145881;23;20016;-78
2022/06/22 11:10:31;;;;;;;7.65;1.60;;;;;;;29.45;27.18;100148.19;6157531;23;20016;-76
2022/06/22 11:13:05;;;;;;;2.25;1.00;;;;;;;30.29;27.07;100138.44;6147740;23;20464;-74
2022/06/22 11:16:07;;;;;;;1.77;0.98;;;;;;;31.90;25.35;100147.09;6187451;23;20491;-74
2022/06/22 11:18:48;;;;;;;2.10;1.00;;;;;;;33.31;22.77;100146.13;6185359;23;20013;-74
2022/06/22 11:21:53;;;;;;;1.73;0.70;;;;;;;35.39;21.06;100133.88;6188100;23;20019;-74
2022/06/22 11:24:42;;;;;;;1.83;1.00;;;;;;;37.53;18.41;100159.38;6189052;23;20005;-74
2022/06/22 11:30:48;;;;;;;1.15;0.80;;;;;;;41.34;15.55;100146.88;6187238;23;20015;-74
2022/06/22 11:33:07;;;;;;;2.28;0.90;;;;;;;42.60;13.75;100146.03;6187272;23;20040;-74
2022/06/22 11:35:41;;;;;;;1.15;0.70;;;;;;;43.51;13.48;100136.72;6186008;23;20439;-73
2022/06/22 11:39:04;;;;;;;1.98;0.90;;;;;;;44.60;12.26;100137.38;6186150;23;20305;-75
2022/06/22 11:42:11;;;;;;;1.50;0.80;;;;;;;45.31;11.70;100136.84;6098606;23;20013;-74
2022/06/22 11:48:02;;;;;;;1.60;0.70;;;;;;;47.30;10.49;100117.69;6218595;23;20015;-73
2022/06/22 11:51:03;;;;;;;1.05;0.63;;;;;;;47.98;10.44;100113.69;6215085;23;20028;-75
2022/06/22 11:53:55;;;;;;;1.50;0.70;;;;;;;48.47;9.41;100110.19;6193892;23;20036;-75
2022/06/22 11:56:58;;;;;;;0.80;0.60;;;;;;;49.39;8.94;100100.81;6192047;23;20013;-75
2022/06/22 12:00:36;;;;;;;;;;;;;;;;;;;;;
2022/06/22 12:04:06;;;;;;;;;;;;;;;;;;;;;
2022/06/22 12:07:25;;;;;;;;;;;;;;;;;;;;;
2022/06/22 12:09:55;;;;;;;1.67;0.70;;;;;;;52.62;7.33;100096.72;6213100;23;20035;-75
2022/06/22 12:13:09;;;;;;;;;;;;;;;;;;;;;
2022/06/22 12:16:24;;;;;;;;;;;;;;;;;;;;;
2022/06/22 12:19:24;;;;;;;;;;;;;;;;;;;;;
2022/06/22 12:22:43;;;;;;;0.73;0.52;;;;;;;54.10;6.12;100091.06;6128133;23;20065;-75
2022/06/22 12:26:12;;;;;;;3.75;0.68;;;;;;;54.70;5.70;100090.91;6082791;23;20017;-75
2022/06/22 12:29:02;;;;;;;1.25;1.00;;;;;;;55.20;5.20;100090.41;6097098;23;20001;-75
2022/06/22 12:32:13;;;;;;;1.30;0.63;;;;;;;55.53;5.54;100082.47;6096119;23;20119;-76
2022/06/22 12:38:56;;;;;;;2.60;0.88;;;;;;;55.88;5.31;100065.06;6107579;23;20010;-74
2022/06/22 12:44:57;;;;;;;1.35;0.70;;;;;;;57.20;4.37;100073.44;6122538;23;19917;-74
2022/06/22 12:47:41;;;;;;;2.03;0.77;;;;;;;57.28;4.48;100061.59;6121464;23;20014;-76
2022/06/22 12:50:09;;;;;;;;;;;;;;;58.18;4.53;100071.09;6127398;23;20085;-76
2022/06/22 12:52:48;;;;;;;1.35;0.55;;;;;;;58.62;4.12;100063.47;6127420;23;19916;-75
2022/06/22 12:55:24;;;;;;;0.60;0.50;;;;;;;58.14;4.41;100056.06;6156942;23;20064;-76
2022/06/22 12:57:55;;;;;;;1.08;0.50;;;;;;;58.98;4.13;100050.03;6219837;23;20082;-75
2022/06/22 13:00:22;;;;;;;1.85;0.80;;;;;;;59.63;3.25;100045.28;6193484;23;20009;-76
2022/06/22 13:02:50;;;;;;;2.25;0.80;;;;;;;58.49;3.41;100044.88;6192432;23;20073;-75
2022/06/22 13:05:34;;;;;;;1.40;0.70;;;;;;;57.71;3.57;100034.97;6191258;23;20331;-76
2022/06/22 13:08:06;;;;;;;1.98;0.65;;;;;;;57.32;3.57;100032.56;6194511;23;20004;-75
2022/06/22 13:10:44;;;;;;;0.80;0.70;;;;;;;57.01;4.05;100020.44;6220186;23;20012;-74
2022/06/22 13:13:15;;;;;;;1.08;0.70;;;;;;;57.48;3.99;100012.56;6213710;23;20064;-76
2022/06/22 13:15:48;;;;;;;0.50;0.50;;;;;;;59.06;3.52;100021.19;6220328;23;20001;-75
2022/06/22 13:18:51;;;;;;;0.50;0.50;;;;;;;59.90;3.42;100011.81;6193706;23;20011;-76
2022/06/22 13:21:27;;;;;;;0.70;0.50;;;;;;;60.40;3.13;100022.69;6192859;23;20102;-75
2022/06/22 13:24:06;;;;;;;1.73;0.73;;;;;;;60.18;3.06;100024.84;6218044;23;20387;-76
2022/06/22 13:26:50;;;;;;;0.75;0.70;;;;;;;59.72;3.13;100015.00;6217906;23;20058;-77
2022/06/22 13:29:37;;;;;;;1.17;0.70;;;;;;;59.70;3.12;100008.97;6192501;23;20456;-75
2022/06/22 13:32:17;;;;;;;0.80;0.70;;;;;;;59.74;2.80;99999.63;6217522;23;19996;-75
2022/06/22 13:34:55;;;;;;;1.40;0.70;;;;;;;59.77;3.01;100003.50;6214717;23;20032;-75
2022/06/22 13:37:42;;;;;;;0.70;0.60;;;;;;;59.49;3.02;100002.97;6218186;23;20059;-75
2022/06/22 13:40:29;;;;;;;0.63;0.60;;;;;;;59.18;3.08;100004.44;6189523;23;20092;-76
2022/06/22 13:43:13;;;;;;;1.52;0.88;;;;;;;58.39;3.41;100005.03;6189153;23;20009;-76
2022/06/22 13:45:57;;;;;;;0.77;0.50;;;;;;;58.69;3.27;100001.50;6190424;23;20070;-75
2022/06/22 13:48:53;;;;;;;1.27;0.60;;;;;;;59.20;3.13;100006.75;6189581;23;20427;-76
2022/06/22 13:51:35;;;;;;;2.17;0.90;;;;;;;59.18;2.88;99991.88;6212150;23;20028;-75
2022/06/22 13:54:26;;;;;;;;;;;;;;;60.00;2.91;99991.91;6190526;23;20084;-75
2022/06/22 13:57:10;;;;;;;1.00;0.70;;;;;;;60.28;2.76;99995.31;6215049;23;19933;-76
2022/06/22 14:00:05;;;;;;;2.20;0.77;;;;;;;59.73;2.61;99990.03;6216253;23;20005;-76
2022/06/22 14:02:33;;;;;;;1.08;0.70;;;;;;;58.51;2.86;99979.50;6188688;23;20369;-75
2022/06/22 14:05:14;;;;;;;5.65;0.77;;;;;;;58.41;3.33;99987.53;6188147;23;20012;-76
2022/06/22 14:07:51;;;;;;;1.08;0.50;;;;;;;59.14;3.15;99962.13;6214804;23;20035;-76
2022/06/22 14:10:45;;;;;;;0.82;0.50;;;;;;;59.50;3.08;99986.81;6215769;23;20017;-77
2022/06/22 14:13:35;;;;;;;3.70;0.85;;;;;;;59.91;2.70;99983.88;6215265;23;20423;-76
2022/06/22 14:16:13;;;;;;;0.80;0.80;;;;;;;59.56;2.76;99990.22;6216218;23;20012;-76
2022/06/22 14:18:56;;;;;;;4.07;0.70;;;;;;;59.73;2.90;99980.38;6216150;23;20005;-76
2022/06/22 14:21:32;;;;;;;0.85;0.60;;;;;;;59.09;2.74;99978.72;6190255;23;20008;-76
2022/06/22 14:24:05;;;;;;;0.77;0.60;;;;;;;59.13;2.83;99978.25;6217053;23;20087;-75
2022/06/22 14:27:05;;;;;;;1.35;0.70;;;;;;;58.84;2.83;99981.97;6218553;23;20005;-76
2022/06/22 14:30:06;;;;;;;1.63;0.90;;;;;;;57.92;3.04;99967.63;6217849;23;20055;-76
2022/06/22 14:32:41;;;;;;;1.30;0.88;;;;;;;57.38;3.20;99974.31;6178514;23;20004;-77
2022/06/22 14:35:54;;;;;;;0.63;0.60;;;;;;;57.60;3.39;99972.44;6189006;23;20072;-76
2022/06/22 14:38:35;;;;;;;0.50;0.50;;;;;;;58.03;3.51;99958.19;6216740;23;20004;-77
2022/06/22 14:41:25;;;;;;;1.77;0.77;;;;;;;58.24;3.12;99968.59;6219122;23;20009;-75
2022/06/22 14:43:59;;;;;;;0.70;0.65;;;;;;;58.13;3.00;99963.31;6192600;23;20087;-76
2022/06/22 14:46:55;;;;;;;1.27;0.70;;;;;;;57.38;3.25;99961.78;6217188;23;20027;-76
2022/06/22 14:49:28;;;;;;;1.48;0.90;;;;;;;56.97;3.68;99970.94;6217780;23;19997;-76
2022/06/22 14:52:04;;;;;;;1.73;0.85;;;;;;;56.75;3.55;99955.94;6190037;23;20059;-74
2022/06/22 14:54:57;;;;;;;1.13;0.70;;;;;;;56.75;3.58;99958.88;6216567;23;20009;-73
2022/06/22 14:57:45;;;;;;;1.52;0.60;;;;;;;57.82;3.43;99943.28;6190321;23;20051;-74
2022/06/22 15:00:46;;;;;;;;;;;;;;;;;;;;;
2022/06/22 15:03:37;;;;;;;0.55;0.55;;;;;;;59.02;3.13;99939.19;6215609;23;20103;-76
2022/06/22 15:06:21;;;;;;;1.70;0.50;;;;;;;58.73;3.26;99947.28;6189822;23;19997;-76
2022/06/22 15:09:23;;;;;;;1.17;0.80;;;;;;;58.51;2.97;99947.91;6216018;23;19997;-76
2022/06/22 15:15:07;;;;;;;0.57;0.55;;;;;;;57.64;3.30;99943.38;6216200;23;20095;-76
2022/06/22 15:17:47;;;;;;;1.10;0.40;;;;;;;57.86;3.12;99946.53;6187500;23;20084;-78
2022/06/22 15:20:16;;;;;;;1.98;0.70;;;;;;;57.40;3.24;99939.22;6216736;23;20005;-76
2022/06/22 15:22:49;;;;;;;0.70;0.60;;;;;;;56.91;3.35;99933.03;6189485;23;20412;-76
2022/06/22 15:25:28;;;;;;;2.03;0.80;;;;;;;56.21;3.94;99930.13;6217761;23;20000;-78
2022/06/22 15:28:09;;;;;;;0.70;0.60;;;;;;;56.17;3.82;99926.03;6218142;23;20031;-77
2022/06/22 15:30:42;;;;;;;0.50;0.45;;;;;;;56.94;4.05;99931.06;6191217;23;20091;-79
2022/06/22 15:33:11;;;;;;;0.60;0.60;;;;;;;57.60;3.49;99931.28;6218230;23;20087;-76
2022/06/22 15:36:04;;;;;;;2.42;0.77;;;;;;;57.21;3.58;99930.28;6191182;23;20001;-75
2022/06/22 15:38:43;;;;;;;1.33;0.70;;;;;;;57.02;3.89;99922.16;6190195;23;20083;-77
2022/06/22 15:41:32;;;;;;;1.45;0.90;;;;;;;56.44;3.80;99906.38;6191330;23;20004;-76
2022/06/22 15:44:00;;;;;;;0.73;0.70;;;;;;;56.09;4.44;99909.31;6190186;23;20086;-79
2022/06/22 15:46:44;;;;;;;2.92;0.60;;;;;;;55.27;4.39;99911.69;6191350;23;20424;-75
2022/06/22 15:49:18;;;;;;;3.33;0.70;;;;;;;54.90;4.27;99887.88;6192744;23;20004;-79
2022/06/22 15:52:25;;;;;;;1.38;0.75;;;;;;;54.71;4.31;99899.31;6219588;22;20451;-77
2022/06/22 15:55:03;;;;;;;2.50;0.90;;;;;;;54.27;4.82;99887.91;6158406;23;20015;-76
2022/06/22 15:57:40;;;;;;;0.95;0.80;;;;;;;54.51;4.78;99904.81;6218898;23;20047;-77
2022/06/22 16:00:28;;;;;;;0.63;0.55;;;;;;;54.48;4.83;99905.25;6188503;23;20051;-76
2022/06/22 16:03:17;;;;;;;1.17;0.70;;;;;;;54.35;4.81;99897.47;6191643;23;20351;-76
2022/06/22 16:06:41;;;;;;;1.25;0.60;;;;;;;54.42;4.83;99884.97;6218174;23;20004;-76
2022/06/22 16:09:18;;;;;;;2.03;0.70;;;;;;;54.08;4.82;99881.13;6109225;23;20005;-78
2022/06/22 16:15:07;;;;;;;1.35;0.60;;;;;;;53.96;5.01;99885.03;6213588;23;20019;-76
2022/06/22 16:17:49;;;;;;;1.33;0.70;;;;;;;54.04;5.04;99874.13;6190580;23;20015;-77
2022/06/22 16:20:37;;;;;;;0.88;0.47;;;;;;;54.22;4.52;99881.66;6188794;23;20617;-78
2022/06/22 16:23:39;;;;;;;0.95;0.60;;;;;;;53.99;4.60;99869.22;6191933;23;20005;-77
2022/06/22 16:26:27;;;;;;;1.08;0.60;;;;;;;53.36;4.88;99882.28;6191359;23;20055;-77
2022/06/22 16:29:07;;;;;;;2.67;0.50;;;;;;;52.86;4.82;99877.47;6217339;23;20008;-77
2022/06/22 16:32:07;;;;;;;0.70;0.43;;;;;;;53.04;5.33;99857.28;6217524;23;20016;-79
2022/06/22 16:35:18;;;;;;;;;;;;;;;;;;;;;
2022/06/22 16:38:27;;;;;;;0.47;0.47;;;;;;;53.18;4.89;99861.59;6219171;23;20394;-76
2022/06/22 16:41:15;;;;;;;0.80;0.60;;;;;;;53.16;4.87;99840.97;6190110;23;20000;-77
2022/06/22 16:44:10;;;;;;;0.90;0.60;;;;;;;53.01;5.04;99838.00;6185179;23;20458;-76
2022/06/22 16:47:09;;;;;;;2.05;0.60;;;;;;;52.35;5.26;99858.56;6189090;23;20035;-76
2022/06/22 16:49:46;;;;;;;1.67;0.90;;;;;;;52.11;5.56;99841.50;6214991;23;20009;-76
2022/06/22 16:52:43;;;;;;;;;;;;;;;;;;;;;
2022/06/22 16:55:28;;;;;;;1.10;0.70;;;;;;;51.60;5.61;99837.03;6215534;23;20079;-77
2022/06/22 16:58:31;;;;;;;0.95;0.63;;;;;;;51.20;6.10;99832.19;6189202;23;20327;-75
2022/06/22 17:01:10;;;;;;;1.58;0.70;;;;;;;51.10;6.04;99852.28;6185116;23;20064;-76
2022/06/22 17:04:24;;;;;;;1.48;0.70;;;;;;;50.64;6.31;99854.63;6186365;23;19996;-76
2022/06/22 17:07:30;;;;;;;1.00;0.60;;;;;;;50.57;6.24;99843.66;6196805;23;20011;-74
2022/06/22 17:10:18;;;;;;;0.70;0.50;;;;;;;50.84;6.26;99849.41;6216564;23;20039;-76
2022/06/22 17:12:48;;;;;;;2.85;1.25;;;;;;;50.27;6.22;99839.03;6190902;23;20458;-76
2022/06/22 17:15:31;;;;;;;1.75;0.88;;;;;;;49.52;6.60;99837.97;6188173;23;20404;-76
2022/06/22 17:18:05;;;;;;;1.40;0.80;;;;;;;48.92;6.69;99825.47;6192195;23;20032;-76
2022/06/22 17:20:40;;;;;;;0.65;0.57;;;;;;;48.47;6.98;99823.97;6190589;23;20371;-77
2022/06/22 17:23:23;;;;;;;0.63;0.60;;;;;;;48.17;7.57;99844.34;6218217;23;20012;-76
2022/06/22 17:26:31;;;;;;;0.90;0.50;;;;;;;47.76;7.60;99840.28;6217061;23;20001;-76
2022/06/22 17:29:20;;;;;;;1.50;0.80;;;;;;;46.80;8.04;99832.25;6217032;23;20015;-77
2022/06/22 17:31:53;;;;;;;1.77;0.70;;;;;;;45.63;8.37;99827.06;6216561;23;19997;-77
2022/06/22 17:34:25;;;;;;;1.27;0.82;;;;;;;45.00;8.65;99834.06;6216578;23;20328;-76
2022/06/22 17:36:56;;;;;;;1.20;0.70;;;;;;;44.37;9.08;99835.94;6188560;23;20012;-77
2022/06/22 17:39:34;;;;;;;1.05;0.80;;;;;;;43.65;9.40;99835.72;6190946;23;20004;-77
2022/06/22 17:42:20;;;;;;;6.80;0.50;;;;;;;43.61;9.49;99834.38;6215987;23;20005;-77
2022/06/22 17:44:59;;;;;;;0.57;0.55;;;;;;;43.65;9.68;99829.16;6218224;23;20004;-76
2022/06/22 17:47:24;;;;;;;1.00;0.60;;;;;;;43.50;9.97;99841.59;6190807;23;20079;-76
2022/06/22 17:53:31;;;;;;;1.40;0.82;;;;;;;42.78;10.48;99848.94;6154405;23;20021;-76
2022/06/22 17:56:42;;;;;;;0.63;0.60;;;;;;;42.01;10.80;99810.81;6209176;23;20017;-75
2022/06/22 17:59:46;;;;;;;;;;;;;;;;;;;;;
2022/06/22 18:02:17;;;;;;;0.50;0.50;;;;;;;41.09;11.51;99856.47;6180467;23;20072;-72
2022/06/22 18:05:21;;;;;;;;;;;;;;;;;;;;;
2022/06/22 18:07:55;;;;;;;1.25;1.08;;;;;;;39.16;12.29;99839.00;6184981;23;20084;-73
2022/06/22 18:10:34;;;;;;;1.35;0.80;;;;;;;37.40;13.14;99858.47;6183485;23;20376;-71
2022/06/22 18:13:00;;;;;;;5.25;0.98;;;;;;;35.34;16.66;99853.03;6159909;23;20424;-72
2022/06/22 18:15:34;;;;;;;2.03;1.05;;;;;;;33.72;18.89;99847.38;6157321;23;20013;-73
2022/06/22 18:18:01;;;;;;;5.43;1.48;;;;;;;32.29;21.49;99863.03;6185049;23;19993;-73
2022/06/22 18:20:40;;;;;;;3.03;1.30;;;;;;;31.08;22.84;99872.69;6187452;23;20016;-73
2022/06/22 18:23:21;;;;;;;4.07;1.35;;;;;;;30.03;24.81;99864.28;6186085;23;20385;-72
2022/06/22 18:26:05;;;;;;;2.10;1.17;;;;;;;29.24;25.17;99867.47;6184266;23;20047;-71
2022/06/22 18:29:10;;;;;;;2.13;1.30;;;;;;;28.50;27.61;99872.78;6160389;23;20100;-72
2022/06/22 18:31:59;;;;;;;3.90;1.25;;;;;;;27.74;28.25;99874.66;6208251;23;19996;-71
2022/06/22 18:34:36;;;;;;;3.85;1.33;;;;;;;27.40;29.39;99883.38;6158618;23;20028;-72
2022/06/22 18:37:29;;;;;;;6.13;1.30;;;;;;;26.96;30.59;99885.91;6186618;23;20005;-71
2022/06/22 18:42:48;;;;;;;3.20;1.23;;;;;;;26.16;31.62;99888.44;6185350;23;20016;-74
2022/06/22 18:45:26;;;;;;;4.13;1.50;;;;;;;25.96;32.92;99900.63;6161186;23;20001;-73
2022/06/22 18:48:12;;;;;;;2.30;1.17;;;;;;;25.46;33.09;99888.81;6186808;23;20043;-71
2022/06/22 18:50:45;;;;;;;3.50;1.55;;;;;;;25.16;33.88;99886.81;6161989;23;20001;-71
2022/06/22 18:53:26;;;;;;;2.35;1.10;;;;;;;24.91;34.40;99908.81;6214137;23;20008;-74
2022/06/22 18:56:04;;;;;;;4.05;1.08;;;;;;;24.62;34.39;99902.78;6216492;23;20378;-73
2022/06/22 18:58:30;;;;;;;2.65;1.05;;;;;;;24.44;34.41;99907.22;6215359;23;20005;-73
2022/06/22 19:04:24;;;;;;;2.00;1.15;;;;;;;24.19;35.17;99902.78;6129387;23;20500;-74
2022/06/22 19:07:09;;;;;;;2.05;1.08;;;;;;;23.95;34.93;99892.00;6139376;23;20019;-71
2022/06/22 19:09:43;;;;;;;2.50;1.08;;;;;;;23.97;35.46;99914.75;6216584;23;19977;-73
2022/06/22 19:12:27;;;;;;;1.77;1.05;;;;;;;23.76;34.78;99907.56;6216399;23;20004;-75
2022/06/22 19:15:00;;;;;;;4.37;1.57;;;;;;;23.73;35.25;99913.88;6190428;23;20015;-74
2022/06/22 19:18:11;;;;;;;2.13;1.20;;;;;;;23.53;35.12;99913.06;6218093;23;20234;-72
2022/06/22 19:21:08;;;;;;;4.35;1.20;;;;;;;23.26;36.04;99895.34;6218184;23;20005;-75
2022/06/22 19:27:45;;;;;;;;;;;;;;;;;;;;;
2022/06/22 19:30:41;;;;;;;2.05;1.30;;;;;;;22.77;37.71;99918.91;6154988;23;20066;-76
2022/06/22 19:34:01;;;;;;;1.17;0.90;;;;;;;22.74;37.84;99936.34;6156235;23;20467;-76
2022/06/22 19:36:48;;;;;;;1.80;1.10;;;;;;;22.65;38.88;99939.31;6134401;23;20026;-73
2022/06/22 19:39:38;;;;;;;7.28;0.98;;;;;;;22.53;38.84;99928.25;6187148;23;20351;-74
2022/06/22 19:42:45;;;;;;;4.45;1.55;;;;;;;22.30;39.04;99934.41;6219393;23;20300;-73
2022/06/22 19:45:13;;;;;;;2.65;1.20;;;;;;;22.35;40.11;99950.06;6195146;23;20008;-74
2022/06/22 19:48:05;;;;;;;3.80;1.30;;;;;;;22.14;39.96;99943.53;6191111;23;20001;-74
2022/06/22 19:50:49;;;;;;;3.75;1.30;;;;;;;22.16;39.75;99948.75;6168439;23;20044;-75
2022/06/22 19:53:34;;;;;;;4.20;1.35;;;;;;;22.05;40.24;99951.25;6191858;23;20528;-73
2022/06/22 19:56:33;;;;;;;1.98;1.23;;;;;;;21.88;39.85;99951.56;6193382;23;20009;-78
2022/06/22 19:58:58;;;;;;;2.70;1.48;;;;;;;21.56;40.94;99935.53;6192367;23;20036;-78
2022/06/22 20:01:30;;;;;;;3.38;1.30;;;;;;;21.40;41.72;99935.44;6189867;23;20284;-74
2022/06/22 20:04:07;;;;;;;2.30;1.10;;;;;;;21.39;41.50;99958.88;6213265;23;20016;-74
2022/06/22 20:06:50;;;;;;;2.47;0.90;;;;;;;21.25;41.10;99956.44;6188385;23;20474;-75
2022/06/22 20:16:42;;;;;;;2.03;1.15;;;;;;;20.78;41.84;99965.28;6123551;23;20056;-74
2022/06/22 20:48:03;;;;;;;2.03;1.15;;;;;;;19.73;43.78;99995.97;5663231;25;20025;-71
2022/06/22 20:51:20;;;;;;;2.28;1.13;;;;;;;19.65;43.11;100009.56;5662930;24;20016;-71
2022/06/22 20:54:55;;;;;;;;;;;;;;;;;;;;;
2022/06/22 21:00:46;;;;;;;2.20;0.98;;;;;;;19.44;44.03;100006.00;6042702;23;20010;-70
2022/06/22 21:04:06;;;;;;;1.88;1.02;;;;;;;19.38;43.54;100018.41;6101173;23;20006;-76
2022/06/22 21:07:02;;;;;;;4.40;2.10;;;;;;;19.18;44.29;100009.72;6099632;23;20377;-73
2022/06/22 21:09:58;;;;;;;2.17;1.13;;;;;;;19.23;44.78;100020.63;6100966;23;20005;-72
2022/06/22 21:12:39;;;;;;;;;;;;;;;;;;;;;
2022/06/22 21:19:05;;;;;;;2.40;1.33;;;;;;;19.09;45.54;100029.16;6185425;23;20106;-73
2022/06/22 21:25:13;;;;;;;4.18;1.70;;;;;;;18.80;47.47;100021.59;6122375;23;20020;-73
2022/06/22 21:31:59;;;;;;;4.43;1.80;;;;;;;18.70;47.69;100022.75;6175992;23;20071;-73
2022/06/22 21:35:16;;;;;;;;;;;;;;;;;;;;;
2022/06/22 21:41:39;;;;;;;1.75;1.25;;;;;;;18.21;47.58;99995.38;6092638;23;20063;-74
2022/06/22 21:44:25;;;;;;;2.28;1.10;;;;;;;18.29;48.18;100019.44;6070426;23;20006;-71
2022/06/22 21:47:07;;;;;;;3.42;1.33;;;;;;;18.21;47.97;100023.03;6094844;23;20013;-73
2022/06/22 21:49:51;;;;;;;1.35;0.90;;;;;;;18.27;48.41;100018.94;6155212;23;20036;-72
2022/06/22 21:52:38;;;;;;;1.50;1.00;;;;;;;18.40;47.61;100019.09;6206221;22;20235;-73